createdAt,value
2022-07-28T00:00:48.692Z,68.60
2022-07-28T00:03:17.352Z,68.60
2022-07-28T00:05:45.849Z,68.60
2022-07-28T00:08:14.266Z,68.30
2022-07-28T00:10:42.594Z,68.40
2022-07-28T00:13:12.588Z,68.20
2022-07-28T00:15:41.084Z,68.30
2022-07-28T00:18:09.469Z,68.30
2022-07-28T00:20:37.997Z,68.40
2022-07-28T00:23:06.402Z,68.40
2022-07-28T00:25:34.796Z,68.40
2022-07-28T00:28:03.137Z,68.50
2022-07-28T00:30:32.873Z,68.20
2022-07-28T00:33:01.403Z,68.30
2022-07-28T00:35:31.120Z,68.50
2022-07-28T00:38:01.202Z,68.40
2022-07-28T00:40:43.552Z,68.60
2022-07-28T00:43:11.965Z,68.40
2022-07-28T00:45:41.745Z,68.50
2022-07-28T00:48:10.524Z,68.70
2022-07-28T00:50:40.836Z,68.60
2022-07-28T00:53:09.888Z,68.60
2022-07-28T00:56:05.367Z,68.50
2022-07-28T00:58:28.438Z,68.60
2022-07-28T01:00:58.986Z,68.80
2022-07-28T01:03:28.129Z,68.70
2022-07-28T01:06:04.568Z,68.60
2022-07-28T01:08:42.345Z,68.70
2022-07-28T01:11:17.087Z,68.90
2022-07-28T01:14:03.996Z,68.80
2022-07-28T01:16:34.024Z,69.00
2022-07-28T01:19:10.236Z,69.10
2022-07-28T01:21:41.744Z,69.10
2022-07-28T01:24:16.584Z,69.10
2022-07-28T01:26:55.945Z,69.00
2022-07-28T01:29:47.475Z,69.10
2022-07-28T01:32:21.047Z,68.90
2022-07-28T01:34:53.379Z,68.80
2022-07-28T01:37:26.519Z,68.80
2022-07-28T01:39:59.966Z,68.80
2022-07-28T01:42:33.259Z,68.80
2022-07-28T01:45:04.244Z,68.80
2022-07-28T01:47:35.438Z,68.80
2022-07-28T01:50:08.135Z,68.80
2022-07-28T01:52:37.729Z,69.10
2022-07-28T01:55:07.879Z,69.20
2022-07-28T01:57:38.247Z,69.00
2022-07-28T02:00:12.354Z,69.10
2022-07-28T02:02:44.791Z,69.00
2022-07-28T02:05:16.317Z,69.00
2022-07-28T02:07:49.472Z,68.90
2022-07-28T02:10:19.655Z,69.50
2022-07-28T02:12:50.648Z,69.20
2022-07-28T02:15:20.574Z,69.20
2022-07-28T02:17:53.208Z,69.20
2022-07-28T02:20:22.334Z,69.20
2022-07-28T02:22:53.947Z,69.10
2022-07-28T02:25:23.134Z,69.10
2022-07-28T02:27:59.519Z,69.10
2022-07-28T02:30:35.407Z,69.10
2022-07-28T02:33:09.469Z,69.10
2022-07-28T02:35:45.015Z,69.00
2022-07-28T02:38:16.484Z,68.80
2022-07-28T02:40:46.225Z,68.80
2022-07-28T02:43:18.112Z,69.00
2022-07-28T02:45:53.219Z,69.00
2022-07-28T02:48:27.212Z,68.80
2022-07-28T02:50:57.661Z,69.00
2022-07-28T02:53:27.373Z,69.00
2022-07-28T02:55:56.634Z,69.10
2022-07-28T02:58:28.050Z,69.00
2022-07-28T03:00:57.926Z,69.00
2022-07-28T03:03:28.595Z,69.30
2022-07-28T03:05:57.415Z,69.10
2022-07-28T03:08:25.987Z,69.00
2022-07-28T03:11:08.799Z,69.20
2022-07-28T03:13:38.081Z,69.10
2022-07-28T03:16:07.497Z,69.00
2022-07-28T03:18:37.475Z,69.20
2022-07-28T03:21:06.451Z,69.10
2022-07-28T03:23:39.831Z,69.40
2022-07-28T03:26:14.073Z,69.20
2022-07-28T03:41:09.415Z,68.50
2022-07-28T03:43:39.075Z,69.90
2022-07-28T03:46:13.187Z,69.80
2022-07-28T03:48:41.993Z,69.80
2022-07-28T03:51:10.477Z,69.70
2022-07-28T03:53:39.429Z,69.60
2022-07-28T03:56:09.264Z,69.50
2022-07-28T03:58:37.743Z,69.40
2022-07-28T04:01:06.163Z,69.40
2022-07-28T04:03:44.008Z,69.50
2022-07-28T04:06:13.043Z,69.40
2022-07-28T04:08:41.364Z,69.20
2022-07-28T04:11:11.210Z,69.60
2022-07-28T04:13:39.579Z,69.50
2022-07-28T04:16:08.583Z,69.50
2022-07-28T04:18:37.245Z,69.40
2022-07-28T04:21:08.681Z,69.30
2022-07-28T04:23:37.051Z,69.40
2022-07-28T04:26:05.774Z,69.20
2022-07-28T04:28:35.610Z,69.20
2022-07-28T04:31:04.285Z,69.20
2022-07-28T04:33:32.684Z,69.20
2022-07-28T04:36:01.764Z,69.10
2022-07-28T04:38:30.519Z,69.10
2022-07-28T04:40:59.302Z,69.00
2022-07-28T04:43:27.719Z,69.10
2022-07-28T04:45:57.555Z,69.00
2022-07-28T04:48:26.037Z,69.00
2022-07-28T04:50:54.547Z,68.80
2022-07-28T04:53:24.225Z,68.80
2022-07-28T04:55:54.613Z,68.60
2022-07-28T04:58:26.236Z,68.50
2022-07-28T05:00:56.270Z,68.40
2022-07-28T05:03:24.944Z,68.40
2022-07-28T05:05:54.499Z,68.30
2022-07-28T05:08:25.823Z,68.20
2022-07-28T05:10:56.103Z,68.30
2022-07-28T05:13:26.770Z,68.20
2022-07-28T05:15:58.918Z,68.10
2022-07-28T05:18:27.260Z,68.20
2022-07-28T05:20:55.894Z,68.10
2022-07-28T05:23:24.410Z,68.00
2022-07-28T05:25:52.992Z,68.00
2022-07-28T05:28:21.375Z,67.80
2022-07-28T05:30:49.829Z,67.70
2022-07-28T05:33:19.633Z,67.50
2022-07-28T05:35:54.067Z,67.40
2022-07-28T05:38:22.878Z,67.20
2022-07-28T05:40:51.693Z,67.10
2022-07-28T05:43:20.588Z,66.90
2022-07-28T05:45:49.630Z,66.90
2022-07-28T05:48:20.656Z,66.90
2022-07-28T05:50:49.364Z,66.90
2022-07-28T05:53:18.147Z,66.60
2022-07-28T05:55:57.825Z,66.40
2022-07-28T05:58:30.877Z,66.40
2022-07-28T06:01:01.138Z,66.50
2022-07-28T06:03:32.431Z,66.30
2022-07-28T06:06:15.141Z,66.20
2022-07-28T06:08:46.007Z,66.20
2022-07-28T06:11:22.262Z,66.00
2022-07-28T06:13:52.440Z,65.90
2022-07-28T06:16:22.760Z,66.20
2022-07-28T06:18:53.243Z,66.40
2022-07-28T06:21:24.607Z,66.30
2022-07-28T06:23:53.092Z,66.10
2022-07-28T06:26:23.834Z,66.20
2022-07-28T06:28:52.662Z,66.30
2022-07-28T06:31:21.132Z,66.30
2022-07-28T06:33:49.564Z,66.20
2022-07-28T06:36:19.366Z,66.00
2022-07-28T06:38:47.727Z,66.00
2022-07-28T06:41:16.377Z,65.80
2022-07-28T06:43:44.811Z,65.90
2022-07-28T06:46:18.712Z,66.80
2022-07-28T06:48:47.459Z,65.80
2022-07-28T06:51:19.233Z,65.80
2022-07-28T06:53:49.652Z,65.60
2022-07-28T06:56:21.437Z,65.40
2022-07-28T06:58:50.180Z,65.20
2022-07-28T07:01:20.779Z,65.10
2022-07-28T07:03:49.200Z,64.90
2022-07-28T07:06:20.838Z,64.80
2022-07-28T07:08:50.579Z,64.80
2022-07-28T07:11:18.960Z,64.90
2022-07-28T07:13:47.672Z,64.90
2022-07-28T07:16:16.029Z,64.80
2022-07-28T07:18:44.476Z,64.60
2022-07-28T07:21:12.902Z,64.60
2022-07-28T07:23:41.263Z,64.70
2022-07-28T07:26:11.003Z,64.50
2022-07-28T07:28:41.782Z,64.70
2022-07-28T07:31:10.195Z,64.60
2022-07-28T07:33:38.605Z,64.70
2022-07-28T07:36:07.552Z,64.50
2022-07-28T07:38:35.901Z,64.40
2022-07-28T07:41:04.389Z,64.40
2022-07-28T07:43:34.210Z,64.20
2022-07-28T07:46:02.518Z,64.40
2022-07-28T07:48:30.904Z,64.40
2022-07-28T07:50:59.293Z,64.40
2022-07-28T07:53:27.710Z,64.20
2022-07-28T07:55:56.133Z,65.00
2022-07-28T07:58:25.245Z,64.00
2022-07-28T08:00:55.026Z,64.00
2022-07-28T08:03:23.506Z,64.00
2022-07-28T08:05:56.777Z,63.80
2022-07-28T08:08:25.910Z,63.80
2022-07-28T08:10:54.465Z,63.80
2022-07-28T08:13:23.346Z,63.80
2022-07-28T08:15:52.182Z,63.90
2022-07-28T08:18:22.204Z,63.60
2022-07-28T08:20:50.595Z,63.60
2022-07-28T08:23:24.294Z,63.80
2022-07-28T08:25:55.031Z,63.80
2022-07-28T08:28:23.406Z,63.80
2022-07-28T08:30:52.510Z,63.80
2022-07-28T08:33:22.351Z,63.70
2022-07-28T08:35:50.966Z,63.40
2022-07-28T08:38:20.132Z,63.40
2022-07-28T08:40:51.915Z,63.30
2022-07-28T08:43:32.156Z,63.20
2022-07-28T08:46:02.305Z,63.20
2022-07-28T08:48:33.971Z,63.10
2022-07-28T08:51:05.236Z,63.30
2022-07-28T08:53:35.658Z,63.30
2022-07-28T08:56:06.885Z,63.00
2022-07-28T08:58:37.406Z,62.80
2022-07-28T09:01:08.596Z,62.80
2022-07-28T09:03:39.236Z,62.80
2022-07-28T09:06:08.682Z,62.80
2022-07-28T09:08:37.045Z,62.80
2022-07-28T09:11:06.889Z,62.90
2022-07-28T09:13:36.243Z,63.00
2022-07-28T09:16:07.454Z,62.80
2022-07-28T09:18:37.670Z,62.60
2022-07-28T09:21:06.015Z,62.30
2022-07-28T09:23:45.489Z,62.20
2022-07-28T09:26:14.414Z,62.20
2022-07-28T09:28:50.996Z,62.30
2022-07-28T09:31:19.936Z,62.40
2022-07-28T09:33:57.064Z,62.30
2022-07-28T09:36:25.929Z,62.20
2022-07-28T09:38:55.409Z,62.20
2022-07-28T09:41:24.346Z,62.20
2022-07-28T09:43:55.880Z,62.20
2022-07-28T09:46:26.392Z,62.30
2022-07-28T09:49:01.358Z,62.30
2022-07-28T09:51:31.978Z,62.50
2022-07-28T09:54:09.600Z,62.30
2022-07-28T09:56:40.094Z,62.20
2022-07-28T09:59:08.761Z,61.90
2022-07-28T10:01:53.209Z,61.70
2022-07-28T10:04:34.411Z,61.70
2022-07-28T10:07:05.707Z,61.70
2022-07-28T10:09:34.469Z,61.30
2022-07-28T10:12:20.714Z,60.90
2022-07-28T10:14:50.534Z,60.60
2022-07-28T10:17:30.457Z,60.40
2022-07-28T10:20:02.763Z,60.20
2022-07-28T10:22:36.375Z,59.70
2022-07-28T10:25:12.162Z,59.60
2022-07-28T10:27:43.139Z,59.20
2022-07-28T10:30:13.497Z,59.20
2022-07-28T10:32:43.716Z,59.10
2022-07-28T10:35:15.301Z,59.10
2022-07-28T10:37:53.061Z,59.20
2022-07-28T10:40:28.237Z,58.50
2022-07-28T10:42:57.177Z,58.60
2022-07-28T10:45:41.954Z,58.40
2022-07-28T10:48:14.311Z,58.10
2022-07-28T10:50:45.685Z,57.70
2022-07-28T10:53:25.022Z,57.60
2022-07-28T10:56:01.595Z,57.80
2022-07-28T10:58:40.173Z,57.50
2022-07-28T11:01:17.051Z,57.40
2022-07-28T11:03:55.312Z,57.60
2022-07-28T11:06:34.652Z,57.10
2022-07-28T11:09:23.140Z,57.20
2022-07-28T11:11:52.826Z,57.40
2022-07-28T11:14:39.046Z,57.20
2022-07-28T11:17:33.574Z,56.80
2022-07-28T11:22:53.017Z,56.30
2022-07-28T11:25:22.709Z,56.30
2022-07-28T11:28:03.358Z,56.20
2022-07-28T11:30:54.912Z,55.80
2022-07-28T11:33:25.426Z,55.90
2022-07-28T11:35:57.681Z,56.00
2022-07-28T11:38:28.168Z,56.00
2022-07-28T11:40:58.127Z,56.00
2022-07-28T11:43:38.683Z,56.00
2022-07-28T11:46:24.375Z,56.00
2022-07-28T11:49:25.089Z,56.30
2022-07-28T11:52:24.416Z,56.40
2022-07-28T11:54:56.605Z,56.10
2022-07-28T11:57:26.750Z,56.10
2022-07-28T12:00:01.359Z,56.10
2022-07-28T12:02:32.027Z,56.30
2022-07-28T12:05:03.743Z,56.50
2022-07-28T12:07:38.218Z,56.50
2022-07-28T12:13:28.624Z,56.60
2022-07-28T12:15:57.380Z,56.60
2022-07-28T12:18:25.993Z,56.50
2022-07-28T12:20:55.129Z,56.80
2022-07-28T12:23:44.116Z,57.00
2022-07-28T12:26:31.742Z,57.10
2022-07-28T12:29:00.951Z,56.90
2022-07-28T12:31:33.280Z,56.40
2022-07-28T12:34:02.137Z,56.10
2022-07-28T12:36:31.170Z,56.00
2022-07-28T12:39:00.375Z,56.00
2022-07-28T12:41:34.765Z,56.00
2022-07-28T12:44:06.501Z,55.10
2022-07-28T12:46:35.294Z,54.90
2022-07-28T12:49:03.924Z,55.20
2022-07-28T12:51:34.452Z,55.20
2022-07-28T12:54:03.685Z,55.10
2022-07-28T12:56:44.756Z,55.10
2022-07-28T12:59:16.374Z,55.20
2022-07-28T13:01:52.768Z,54.90
2022-07-28T13:04:39.986Z,54.70
2022-07-28T13:07:10.944Z,54.50
2022-07-28T13:09:47.109Z,54.70
2022-07-28T13:12:20.640Z,54.80
2022-07-28T13:14:52.991Z,54.70
2022-07-28T13:17:23.113Z,54.30
2022-07-28T13:19:51.828Z,54.50
2022-07-28T13:22:30.883Z,53.50
2022-07-28T13:25:00.178Z,53.50
2022-07-28T13:27:30.015Z,53.80
2022-07-28T13:29:58.416Z,53.40
2022-07-28T13:32:27.132Z,53.50
2022-07-28T13:34:57.075Z,53.80
2022-07-28T13:37:25.556Z,54.00
2022-07-28T13:39:54.757Z,54.20
2022-07-28T13:42:23.603Z,53.80
2022-07-28T13:44:53.680Z,53.70
2022-07-28T13:47:22.008Z,54.10
2022-07-28T13:49:50.765Z,54.30
2022-07-28T13:52:32.648Z,54.40
2022-07-28T13:55:03.882Z,54.50
2022-07-28T13:57:35.065Z,54.40
2022-07-28T14:00:08.344Z,54.10
2022-07-28T14:02:37.224Z,53.90
2022-07-28T14:05:06.843Z,53.70
2022-07-28T14:07:35.444Z,53.80
2022-07-28T14:10:03.925Z,53.60
2022-07-28T14:12:37.689Z,53.90
2022-07-28T14:15:10.552Z,54.10
2022-07-28T14:17:45.632Z,54.20
2022-07-28T14:20:15.866Z,54.40
2022-07-28T14:22:46.622Z,54.50
2022-07-28T14:25:20.952Z,54.70
2022-07-28T14:27:51.008Z,54.90
2022-07-28T14:30:22.130Z,55.00
2022-07-28T14:32:50.719Z,54.90
2022-07-28T14:35:19.283Z,54.70
2022-07-28T14:38:35.540Z,55.20
2022-07-28T14:40:39.455Z,54.30
2022-07-28T14:43:08.165Z,54.40
2022-07-28T14:46:00.609Z,54.50
2022-07-28T14:48:26.857Z,54.30
2022-07-28T14:50:57.159Z,54.20
2022-07-28T14:53:27.780Z,54.30
2022-07-28T14:55:57.062Z,54.50
2022-07-28T14:58:25.849Z,54.70
2022-07-28T15:00:55.997Z,54.70
2022-07-28T15:03:26.928Z,54.80
2022-07-28T15:05:55.287Z,54.80
2022-07-28T15:08:29.297Z,54.90
2022-07-28T15:10:58.698Z,54.70
2022-07-28T15:13:27.625Z,54.90
2022-07-28T15:16:00.040Z,54.90
2022-07-28T15:18:28.684Z,55.20
2022-07-28T15:20:57.225Z,55.10
2022-07-28T15:23:25.680Z,55.20
2022-07-28T15:25:56.131Z,55.20
2022-07-28T15:28:24.602Z,55.50
2022-07-28T15:30:53.241Z,55.80
2022-07-28T15:33:25.497Z,55.90
2022-07-28T15:35:56.592Z,55.90
2022-07-28T15:38:28.123Z,56.00
2022-07-28T15:40:58.740Z,56.00
2022-07-28T15:43:27.350Z,56.00
2022-07-28T15:45:56.824Z,56.30
2022-07-28T15:48:26.676Z,56.40
2022-07-28T15:50:55.003Z,56.50
2022-07-28T15:53:23.390Z,56.50
2022-07-28T15:55:52.105Z,56.80
2022-07-28T15:58:21.259Z,56.90
2022-07-28T16:00:49.959Z,56.90
2022-07-28T16:03:18.516Z,57.50
2022-07-28T16:05:50.018Z,56.90
2022-07-28T16:08:22.405Z,57.00
2022-07-28T16:10:52.904Z,57.20
2022-07-28T16:13:33.355Z,57.40
2022-07-28T16:16:07.612Z,57.30
2022-07-28T16:18:37.528Z,57.50
2022-07-28T16:21:09.040Z,57.70
2022-07-28T16:23:37.752Z,57.60
2022-07-28T16:26:08.238Z,57.60
2022-07-28T16:28:36.772Z,57.70
2022-07-28T16:31:05.582Z,57.70
2022-07-28T16:33:34.124Z,57.80
2022-07-28T16:36:02.826Z,58.00
2022-07-28T16:38:32.645Z,58.40
2022-07-28T16:41:01.075Z,58.80
2022-07-28T16:43:29.519Z,59.50
2022-07-28T16:45:58.124Z,59.80
2022-07-28T16:48:26.527Z,60.00
2022-07-28T16:50:54.884Z,60.40
2022-07-28T16:53:23.291Z,61.10
2022-07-28T16:55:53.048Z,61.60
2022-07-28T16:58:22.332Z,62.30
2022-07-28T17:00:51.277Z,63.10
2022-07-28T17:03:19.698Z,63.50
2022-07-28T17:05:48.803Z,64.10
2022-07-28T17:08:17.196Z,63.80
2022-07-28T17:10:45.976Z,63.70
2022-07-28T17:13:16.955Z,63.90
2022-07-28T17:15:45.354Z,64.10
2022-07-28T17:18:13.811Z,64.40
2022-07-28T17:20:46.902Z,64.40
2022-07-28T17:23:15.473Z,64.40
2022-07-28T17:26:08.514Z,64.40
2022-07-28T17:28:34.131Z,64.50
2022-07-28T17:31:02.645Z,64.40
2022-07-28T17:33:31.213Z,65.40
2022-07-28T17:36:00.415Z,64.70
2022-07-28T17:38:33.028Z,64.90
2022-07-28T17:41:04.280Z,65.10
2022-07-28T17:43:35.037Z,65.80
2022-07-28T17:46:08.426Z,65.90
2022-07-28T17:48:39.139Z,66.30
2022-07-28T17:51:07.544Z,66.60
2022-07-28T17:53:39.196Z,66.60
2022-07-28T17:56:08.943Z,66.50
2022-07-28T17:58:39.734Z,66.40
2022-07-28T18:01:12.532Z,66.60
2022-07-28T18:03:59.717Z,66.70
2022-07-28T18:06:30.653Z,66.60
2022-07-28T18:09:05.394Z,66.30
2022-07-28T18:11:43.366Z,66.00
2022-07-28T18:14:27.539Z,65.80
2022-07-28T18:16:56.438Z,65.50
2022-07-28T18:19:24.866Z,65.60
2022-07-28T18:21:53.613Z,65.60
2022-07-28T18:24:23.005Z,65.40
2022-07-28T18:26:52.004Z,65.60
2022-07-28T18:29:21.493Z,65.50
2022-07-28T18:31:52.559Z,65.20
2022-07-28T18:34:23.540Z,65.00
2022-07-28T18:36:53.411Z,65.10
2022-07-28T18:39:25.191Z,65.50
2022-07-28T18:41:56.470Z,65.50
2022-07-28T18:44:24.820Z,65.30
2022-07-28T18:46:57.281Z,65.20
2022-07-28T18:49:26.235Z,65.40
2022-07-28T18:51:55.027Z,65.20
2022-07-28T18:54:27.519Z,65.10
2022-07-28T18:56:56.563Z,65.20
2022-07-28T18:59:24.961Z,65.00
2022-07-28T19:01:54.857Z,65.00
2022-07-28T19:04:23.308Z,65.10
2022-07-28T19:06:51.865Z,65.00
2022-07-28T19:09:20.431Z,65.10
2022-07-28T19:11:48.890Z,65.10
2022-07-28T19:14:18.332Z,65.10
2022-07-28T19:16:47.103Z,65.00
2022-07-28T19:19:17.004Z,65.00
2022-07-28T19:21:45.737Z,65.10
2022-07-28T19:24:14.911Z,65.30
2022-07-28T19:26:45.205Z,65.30
2022-07-28T19:29:14.061Z,65.30
2022-07-28T19:31:42.492Z,65.20
2022-07-28T19:34:11.111Z,65.10
2022-07-28T19:36:41.868Z,65.20
2022-07-28T19:39:12.296Z,65.20
2022-07-28T19:41:42.054Z,65.20
2022-07-28T19:44:12.068Z,65.30
2022-07-28T19:46:40.698Z,65.40
2022-07-28T19:49:09.302Z,65.40
2022-07-28T19:51:37.867Z,65.90
2022-07-28T19:54:07.819Z,66.30
2022-07-28T19:56:38.450Z,66.40
2022-07-28T19:59:07.668Z,66.60
2022-07-28T20:01:36.051Z,66.60
2022-07-28T20:04:15.259Z,66.70
2022-07-28T20:06:44.189Z,66.60
2022-07-28T20:09:13.996Z,66.80
2022-07-28T20:11:42.380Z,66.80
2022-07-28T20:14:10.766Z,66.70
2022-07-28T20:16:39.314Z,66.70
2022-07-28T20:19:09.575Z,66.60
2022-07-28T20:21:39.648Z,66.60
2022-07-28T20:24:08.778Z,66.70
2022-07-28T20:26:38.540Z,66.70
2022-07-28T20:29:06.804Z,66.70
2022-07-28T20:31:36.919Z,66.90
2022-07-28T20:34:07.029Z,66.80
2022-07-28T20:36:35.769Z,66.90
2022-07-28T20:39:21.155Z,66.90
2022-07-28T20:41:53.995Z,67.10
2022-07-28T20:44:30.623Z,67.50
2022-07-28T20:47:00.754Z,67.30
2022-07-28T20:49:29.627Z,67.60
2022-07-28T20:51:58.223Z,67.50
2022-07-28T20:54:27.024Z,67.70
2022-07-28T20:56:57.108Z,68.00
2022-07-28T20:59:27.991Z,68.00
2022-07-28T21:01:57.372Z,67.90
2022-07-28T21:04:26.553Z,67.20
2022-07-28T21:07:01.589Z,67.90
2022-07-28T21:09:32.450Z,67.80
2022-07-28T21:12:02.292Z,68.10
2022-07-28T21:14:32.371Z,68.30
2022-07-28T21:17:00.964Z,68.40
2022-07-28T21:19:29.368Z,68.50
2022-07-28T21:21:57.778Z,68.40
2022-07-28T21:24:26.115Z,68.30
2022-07-28T21:26:54.643Z,68.40
2022-07-28T21:32:04.679Z,68.40
2022-07-28T21:34:34.939Z,68.40
2022-07-28T21:37:03.389Z,68.40
2022-07-28T21:39:32.101Z,68.50
2022-07-28T21:42:00.623Z,68.50
2022-07-28T21:44:33.251Z,68.50
2022-07-28T21:47:01.625Z,69.00
2022-07-28T21:49:31.281Z,69.10
2022-07-28T21:51:59.753Z,69.50
2022-07-28T21:54:28.471Z,69.80
2022-07-28T21:56:56.924Z,70.20
2022-07-28T21:59:25.333Z,70.30
2022-07-28T22:01:55.374Z,70.40
2022-07-28T22:04:23.842Z,71.20
2022-07-28T22:06:54.187Z,71.30
2022-07-28T22:09:22.864Z,71.70
2022-07-28T22:11:51.215Z,71.60
2022-07-28T22:14:19.833Z,71.90
2022-07-28T22:16:48.422Z,71.90
2022-07-28T22:19:18.217Z,71.80
2022-07-28T22:21:47.793Z,72.50
2022-07-28T22:24:16.963Z,71.80
2022-07-28T22:26:45.536Z,71.80
2022-07-28T22:29:13.915Z,72.00
2022-07-28T22:31:42.371Z,72.00
2022-07-28T22:34:10.768Z,72.00
2022-07-28T22:36:40.510Z,72.00
2022-07-28T22:39:08.868Z,72.20
2022-07-28T22:41:37.251Z,72.30
2022-07-28T22:44:05.911Z,72.50
2022-07-28T22:46:35.438Z,72.60
2022-07-28T22:49:04.589Z,72.80
2022-07-28T22:51:33.512Z,73.00
2022-07-28T22:54:03.611Z,73.10
2022-07-28T22:56:36.352Z,73.00
2022-07-28T22:59:07.506Z,73.00
2022-07-28T23:01:36.323Z,73.00
2022-07-28T23:04:06.167Z,73.10
2022-07-28T23:06:36.185Z,73.10
2022-07-28T23:09:06.146Z,73.10
2022-07-28T23:11:34.496Z,73.30
2022-07-28T23:14:02.895Z,73.40
2022-07-28T23:16:31.724Z,73.50
2022-07-28T23:19:00.502Z,73.70
2022-07-28T23:21:31.212Z,73.60
2022-07-28T23:23:59.561Z,73.60
2022-07-28T23:26:29.321Z,73.60
2022-07-28T23:28:57.683Z,73.80
2022-07-28T23:31:26.117Z,73.90
2022-07-28T23:33:57.536Z,74.10
2022-07-28T23:36:27.761Z,74.50
2022-07-28T23:38:57.764Z,74.70
2022-07-28T23:41:26.861Z,74.40
2022-07-28T23:43:57.025Z,74.60
2022-07-28T23:46:25.457Z,74.80
2022-07-28T23:48:54.470Z,74.90
2022-07-28T23:51:47.250Z,75.20
2022-07-28T23:54:11.187Z,74.90
2022-07-28T23:56:43.257Z,74.90
2022-07-28T23:59:14.272Z,74.80
